createdAt,value
2023-02-08T04:00:15.520Z,14.60
2023-02-08T04:02:50.006Z,12.53
2023-02-08T04:05:18.153Z,11.53
2023-02-08T04:07:48.214Z,12.00
2023-02-08T04:10:16.285Z,10.73
2023-02-08T04:13:06.816Z,13.20
2023-02-08T04:15:34.911Z,11.37
2023-02-08T04:18:04.103Z,11.17
2023-02-08T04:20:32.399Z,10.17
2023-02-08T04:23:45.442Z,12.50
2023-02-08T04:26:13.328Z,10.20
2023-02-08T04:28:41.140Z,10.83
2023-02-08T04:31:09.043Z,10.93
2023-02-08T04:33:38.364Z,11.77
2023-02-08T04:36:06.749Z,12.33
2023-02-08T04:38:34.792Z,10.00
2023-02-08T04:41:02.825Z,12.57
2023-02-08T04:43:31.016Z,12.03
2023-02-08T04:45:59.107Z,10.63
2023-02-08T04:48:26.932Z,10.97
2023-02-08T04:50:58.252Z,9.50
2023-02-08T04:53:26.683Z,10.03
2023-02-08T04:55:54.619Z,12.03
2023-02-08T04:58:24.099Z,11.60
2023-02-08T05:00:51.950Z,13.17
2023-02-08T05:03:20.763Z,11.20
2023-02-08T05:05:56.809Z,15.50
2023-02-08T05:08:26.265Z,14.50
2023-02-08T05:10:54.092Z,13.53
2023-02-08T05:13:21.924Z,9.60
2023-02-08T05:15:49.817Z,12.17
2023-02-08T05:18:17.812Z,12.23
2023-02-08T05:20:45.683Z,10.10
2023-02-08T05:23:13.546Z,11.17
2023-02-08T05:25:42.708Z,11.00
2023-02-08T05:28:10.516Z,11.00
2023-02-08T05:30:40.162Z,12.03
2023-02-08T05:33:08.161Z,12.57
2023-02-08T05:35:36.023Z,12.33
2023-02-08T05:38:04.040Z,10.60
2023-02-08T05:40:32.104Z,11.53
2023-02-08T05:43:01.256Z,11.23
2023-02-08T05:45:29.064Z,10.33
2023-02-08T05:47:56.886Z,11.83
2023-02-08T05:50:24.745Z,10.43
2023-02-08T05:52:52.597Z,14.57
2023-02-08T05:55:20.477Z,14.83
2023-02-08T05:57:48.299Z,10.07
2023-02-08T06:00:19.948Z,9.83
2023-02-08T06:02:49.142Z,7.13
2023-02-08T06:05:17.201Z,12.73
2023-02-08T06:07:45.197Z,10.43
2023-02-08T06:10:13.053Z,10.03
2023-02-08T06:12:40.892Z,11.13
2023-02-08T06:15:09.399Z,9.50
2023-02-08T06:17:38.792Z,11.23
2023-02-08T06:20:07.478Z,12.27
2023-02-08T06:22:35.827Z,10.17
2023-02-08T06:25:04.043Z,16.30
2023-02-08T06:27:31.941Z,13.37
2023-02-08T06:29:59.768Z,10.07
2023-02-08T06:32:27.708Z,12.23
2023-02-08T06:34:57.036Z,13.07
2023-02-08T06:37:24.952Z,11.40
2023-02-08T06:39:52.809Z,11.03
2023-02-08T06:42:20.630Z,15.90
2023-02-08T06:44:55.120Z,10.93
2023-02-08T06:47:23.435Z,10.33
2023-02-08T06:49:51.373Z,14.47
2023-02-08T06:52:21.068Z,12.10
2023-02-08T06:54:48.995Z,18.80
2023-02-08T06:57:16.904Z,24.77
2023-02-08T06:59:45.236Z,23.63
2023-02-08T07:02:15.192Z,18.23
2023-02-08T07:04:43.822Z,17.37
2023-02-08T07:07:13.249Z,17.97
2023-02-08T07:09:43.047Z,19.67
2023-02-08T07:12:11.308Z,17.53
2023-02-08T07:14:41.589Z,16.57
2023-02-08T07:17:09.829Z,19.37
2023-02-08T07:19:37.894Z,14.77
2023-02-08T07:22:08.168Z,14.73
2023-02-08T07:24:37.096Z,14.10
2023-02-08T07:27:08.045Z,16.10
2023-02-08T07:29:36.818Z,15.03
2023-02-08T07:32:06.384Z,12.17
2023-02-08T07:34:36.296Z,15.77
2023-02-08T07:37:04.632Z,12.10
2023-02-08T07:39:32.687Z,18.30
2023-02-08T07:42:00.731Z,14.13
2023-02-08T07:44:37.277Z,16.17
2023-02-08T07:47:05.267Z,15.53
2023-02-08T07:49:33.710Z,17.27
2023-02-08T07:52:02.205Z,15.87
2023-02-08T07:54:30.743Z,15.00
2023-02-08T07:56:58.601Z,19.37
2023-02-08T07:59:26.588Z,18.63
2023-02-08T08:01:56.072Z,16.50
2023-02-08T08:04:23.975Z,13.63
2023-02-08T08:06:53.527Z,15.97
2023-02-08T08:09:21.397Z,19.77
2023-02-08T08:11:49.258Z,18.70
2023-02-08T08:14:17.082Z,17.37
2023-02-08T08:16:44.940Z,15.33
2023-02-08T08:19:14.108Z,19.07
2023-02-08T08:21:41.963Z,15.17
2023-02-08T08:24:09.797Z,14.70
2023-02-08T08:26:37.628Z,15.30
2023-02-08T08:29:06.337Z,15.60
2023-02-08T08:31:34.264Z,11.17
2023-02-08T08:34:02.119Z,13.30
2023-02-08T08:36:31.526Z,11.23
2023-02-08T08:38:59.359Z,15.87
2023-02-08T08:41:28.191Z,11.10
2023-02-08T08:43:56.058Z,13.70
2023-02-08T08:46:24.009Z,12.77
2023-02-08T08:48:52.623Z,14.07
2023-02-08T08:51:20.482Z,14.17
2023-02-08T08:53:49.650Z,13.33
2023-02-08T08:56:17.492Z,12.43
2023-02-08T08:58:45.308Z,12.13
2023-02-08T09:01:13.918Z,13.70
2023-02-08T09:03:41.759Z,15.47
2023-02-08T09:06:09.630Z,13.50
2023-02-08T09:08:37.457Z,15.97
2023-02-08T09:11:08.549Z,14.33
2023-02-08T09:13:36.822Z,15.07
2023-02-08T09:16:10.069Z,14.27
2023-02-08T09:18:38.080Z,13.10
2023-02-08T09:21:09.838Z,12.20
2023-02-08T09:23:38.114Z,14.33
2023-02-08T09:26:09.337Z,13.23
2023-02-08T09:28:37.420Z,17.03
2023-02-08T09:31:09.096Z,15.63
2023-02-08T09:33:37.149Z,14.67
2023-02-08T09:36:05.967Z,16.30
2023-02-08T09:38:34.795Z,12.30
2023-02-08T09:41:20.304Z,12.03
2023-02-08T09:43:56.921Z,12.23
2023-02-08T09:46:28.847Z,13.97
2023-02-08T09:49:01.934Z,13.17
2023-02-08T09:51:33.523Z,17.20
2023-02-08T09:54:04.059Z,11.87
2023-02-08T09:56:36.972Z,13.03
2023-02-08T09:59:06.217Z,14.07
2023-02-08T10:01:36.748Z,13.93
2023-02-08T10:04:17.142Z,15.83
2023-02-08T10:06:45.032Z,12.87
2023-02-08T10:09:16.656Z,12.60
2023-02-08T10:11:55.938Z,15.63
2023-02-08T10:14:41.034Z,15.87
2023-02-08T10:17:26.195Z,14.07
2023-02-08T10:20:09.878Z,13.50
2023-02-08T10:22:48.914Z,14.30
2023-02-08T10:25:41.435Z,13.90
2023-02-08T10:28:27.243Z,14.77
2023-02-08T10:31:01.352Z,13.20
2023-02-08T10:33:35.993Z,12.50
2023-02-08T10:36:04.523Z,11.90
2023-02-08T10:38:45.774Z,15.40
2023-02-08T10:41:20.515Z,13.63
2023-02-08T10:43:56.986Z,14.53
2023-02-08T10:46:31.390Z,15.13
2023-02-08T10:49:08.105Z,13.33
2023-02-08T10:51:37.048Z,13.30
2023-02-08T10:54:05.637Z,13.60
2023-02-08T10:56:44.061Z,17.90
2023-02-08T10:59:19.904Z,15.70
2023-02-08T11:01:49.040Z,13.70
2023-02-08T11:04:18.827Z,13.40
2023-02-08T11:06:48.729Z,13.67
2023-02-08T11:09:25.222Z,14.17
2023-02-08T11:11:53.836Z,13.13
2023-02-08T11:14:35.056Z,14.57
2023-02-08T11:17:28.082Z,15.07
2023-02-08T11:19:56.354Z,14.00
2023-02-08T11:22:27.263Z,12.57
2023-02-08T11:24:58.016Z,12.87
2023-02-08T11:27:34.746Z,16.30
2023-02-08T11:30:24.221Z,16.27
2023-02-08T11:33:18.372Z,15.73
2023-02-08T11:36:05.174Z,16.27
2023-02-08T11:38:35.967Z,13.97
2023-02-08T11:41:14.144Z,13.80
2023-02-08T11:43:42.630Z,15.33
2023-02-08T11:46:12.314Z,15.73
2023-02-08T11:48:44.947Z,12.57
2023-02-08T11:51:15.645Z,12.87
2023-02-08T11:53:48.642Z,13.50
2023-02-08T11:56:20.271Z,13.77
2023-02-08T11:58:59.919Z,14.67
2023-02-08T12:01:32.030Z,13.37
2023-02-08T12:04:03.286Z,14.40
2023-02-08T12:07:03.039Z,14.70
2023-02-08T12:09:51.277Z,12.93
2023-02-08T12:12:26.157Z,14.90
2023-02-08T12:15:05.845Z,12.83
2023-02-08T12:17:58.200Z,12.17
2023-02-08T12:20:38.939Z,11.10
2023-02-08T12:23:25.770Z,14.87
2023-02-08T12:26:05.751Z,13.67
2023-02-08T12:28:51.257Z,15.83
2023-02-08T12:31:28.480Z,12.40
2023-02-08T12:34:07.484Z,12.50
2023-02-08T12:37:16.369Z,13.60
2023-02-08T12:40:12.277Z,14.60
2023-02-08T12:42:55.661Z,14.10
2023-02-08T12:45:47.298Z,13.33
2023-02-08T12:48:30.395Z,14.37
2023-02-08T12:51:07.705Z,14.27
2023-02-08T12:53:40.732Z,15.17
2023-02-08T12:56:16.521Z,18.50
2023-02-08T12:58:46.886Z,16.50
2023-02-08T13:01:19.601Z,14.73
2023-02-08T13:03:52.533Z,13.87
2023-02-08T13:06:24.780Z,15.53
2023-02-08T13:08:58.342Z,14.10
2023-02-08T13:11:33.927Z,13.67
2023-02-08T13:14:07.081Z,14.03
2023-02-08T13:16:40.279Z,16.10
2023-02-08T13:19:27.400Z,14.60
2023-02-08T13:21:57.020Z,12.97
2023-02-08T13:24:33.940Z,14.30
2023-02-08T13:27:01.816Z,13.47
2023-02-08T13:29:30.705Z,13.43
2023-02-08T13:32:03.792Z,12.60
2023-02-08T13:34:37.353Z,13.97
2023-02-08T13:37:24.715Z,15.27
2023-02-08T13:40:01.200Z,16.97
2023-02-08T13:42:31.430Z,13.97
2023-02-08T13:45:00.048Z,13.20
2023-02-08T13:47:31.751Z,14.57
2023-02-08T13:50:04.877Z,12.73
2023-02-08T13:52:51.949Z,11.77
2023-02-08T13:55:45.843Z,11.83
2023-02-08T13:58:40.323Z,12.67
2023-02-08T14:01:18.550Z,12.40
2023-02-08T14:04:06.512Z,13.97
2023-02-08T14:06:36.130Z,13.43
2023-02-08T14:09:12.735Z,13.40
2023-02-08T14:11:45.398Z,14.53
2023-02-08T14:14:19.189Z,13.10
2023-02-08T14:16:48.193Z,13.50
2023-02-08T14:19:24.819Z,14.70
2023-02-08T14:22:03.565Z,12.67
2023-02-08T14:24:35.736Z,11.10
2023-02-08T14:27:09.622Z,10.60
2023-02-08T14:29:38.297Z,14.03
2023-02-08T14:32:07.029Z,12.30
2023-02-08T14:34:37.288Z,11.10
2023-02-08T14:37:27.301Z,14.10
2023-02-08T14:40:28.420Z,12.50
2023-02-08T14:42:59.803Z,12.53
2023-02-08T14:45:34.192Z,10.93
2023-02-08T14:48:19.840Z,10.07
2023-02-08T14:50:56.168Z,9.55
2023-02-08T14:53:36.004Z,10.55
2023-02-08T14:56:08.471Z,11.52
2023-02-08T14:58:41.315Z,13.23
2023-02-08T15:01:16.769Z,11.40
2023-02-08T15:03:46.493Z,12.25
2023-02-08T15:06:49.806Z,11.65
2023-02-08T15:09:21.736Z,14.23
2023-02-08T15:11:55.104Z,11.77
2023-02-08T15:14:24.277Z,12.10
2023-02-08T15:16:53.917Z,12.07
2023-02-08T15:19:24.619Z,11.57
2023-02-08T15:21:52.557Z,11.73
2023-02-08T15:24:23.331Z,13.38
2023-02-08T15:26:53.960Z,11.45
2023-02-08T15:29:32.788Z,9.73
2023-02-08T15:32:03.790Z,8.75
2023-02-08T15:34:31.703Z,11.43
2023-02-08T15:36:59.822Z,12.55
2023-02-08T15:39:35.214Z,11.38
2023-02-08T15:42:03.311Z,10.80
2023-02-08T15:44:34.738Z,9.90
2023-02-08T15:47:05.458Z,12.18
2023-02-08T15:49:36.432Z,17.23
2023-02-08T15:52:05.064Z,9.93
2023-02-08T15:54:33.161Z,10.83
2023-02-08T15:57:03.484Z,10.83
2023-02-08T15:59:37.625Z,9.93
2023-02-08T16:02:24.082Z,8.53
2023-02-08T16:04:52.036Z,8.93
2023-02-08T16:07:26.621Z,10.57
2023-02-08T16:09:55.333Z,10.57
2023-02-08T16:12:24.807Z,11.07
2023-02-08T16:14:56.519Z,10.23
2023-02-08T16:17:34.237Z,10.33
2023-02-08T16:20:02.467Z,10.70
2023-02-08T16:22:33.337Z,10.20
2023-02-08T16:25:23.546Z,12.00
2023-02-08T16:27:51.488Z,11.53
2023-02-08T16:30:22.990Z,9.70
2023-02-08T16:32:51.223Z,8.00
2023-02-08T16:35:25.042Z,9.87
2023-02-08T16:37:59.073Z,11.03
2023-02-08T16:40:43.724Z,9.83
2023-02-08T16:43:22.898Z,15.33
2023-02-08T16:46:21.054Z,10.43
2023-02-08T16:48:55.273Z,10.70
2023-02-08T16:51:25.607Z,12.07
2023-02-08T16:53:56.420Z,10.83
2023-02-08T16:56:24.701Z,11.87
2023-02-08T16:58:52.573Z,10.00
2023-02-08T17:01:23.909Z,12.60
2023-02-08T17:03:52.881Z,12.27
2023-02-08T17:06:29.625Z,12.97
2023-02-08T17:08:58.957Z,11.10
2023-02-08T17:11:27.196Z,12.77
2023-02-08T17:13:55.577Z,15.03
2023-02-08T17:16:26.374Z,15.43
2023-02-08T17:18:55.177Z,17.50
2023-02-08T17:21:23.300Z,13.90
2023-02-08T17:23:51.295Z,12.80
2023-02-08T17:26:22.978Z,17.53
2023-02-08T17:28:51.381Z,15.50
2023-02-08T17:31:19.576Z,15.83
2023-02-08T17:33:50.147Z,15.17
2023-02-08T17:36:18.641Z,13.80
2023-02-08T17:38:47.890Z,11.20
2023-02-08T17:41:17.406Z,9.53
2023-02-08T17:43:45.808Z,12.87
2023-02-08T17:46:17.772Z,11.10
2023-02-08T17:48:48.257Z,11.50
2023-02-08T17:51:20.030Z,8.93
2023-02-08T17:53:48.302Z,11.07
2023-02-08T17:56:18.046Z,11.77
2023-02-08T17:58:47.718Z,10.70
2023-02-08T18:01:20.522Z,12.00
2023-02-08T18:03:50.437Z,11.00
2023-02-08T18:06:20.675Z,14.63
2023-02-08T18:08:48.608Z,16.80
2023-02-08T18:11:19.705Z,20.20
2023-02-08T18:13:49.727Z,17.17
2023-02-08T18:16:19.237Z,18.87
2023-02-08T18:18:47.349Z,20.37
2023-02-08T18:21:17.126Z,21.67
2023-02-08T18:23:46.834Z,22.23
2023-02-08T18:26:16.919Z,22.73
2023-02-08T18:28:45.184Z,27.87
2023-02-08T18:31:15.103Z,25.37
2023-02-08T18:33:43.991Z,21.73
2023-02-08T18:36:12.828Z,15.93
2023-02-08T18:38:41.268Z,16.00
2023-02-08T18:41:11.830Z,17.83
2023-02-08T18:43:40.644Z,40.43
2023-02-08T18:46:10.639Z,33.07
2023-02-08T18:48:39.013Z,23.93
2023-02-08T18:51:08.862Z,26.50
2023-02-08T18:53:38.596Z,23.47
2023-02-08T18:56:08.602Z,19.90
2023-02-08T18:58:38.060Z,20.33
2023-02-08T19:01:07.331Z,18.17
2023-02-08T19:03:36.092Z,16.27
2023-02-08T19:06:06.171Z,17.57
2023-02-08T19:08:34.985Z,15.77
2023-02-08T19:11:02.803Z,16.00
2023-02-08T19:13:30.636Z,19.57
2023-02-08T19:15:59.802Z,18.33
2023-02-08T19:18:27.646Z,18.17
2023-02-08T19:20:55.468Z,18.40
2023-02-08T19:23:23.316Z,17.40
2023-02-08T19:25:51.200Z,17.83
2023-02-08T19:28:19.172Z,15.43
2023-02-08T19:30:47.051Z,15.57
2023-02-08T19:33:16.221Z,18.50
2023-02-08T19:35:44.330Z,21.17
2023-02-08T19:38:12.422Z,21.10
2023-02-08T19:40:40.240Z,17.57
2023-02-08T19:43:08.098Z,16.83
2023-02-08T19:45:36.664Z,16.80
2023-02-08T19:48:05.073Z,14.40
2023-02-08T19:50:34.235Z,13.27
2023-02-08T19:53:02.124Z,15.87
2023-02-08T19:55:29.944Z,14.67
2023-02-08T19:57:57.777Z,15.90
2023-02-08T20:00:26.291Z,17.23
2023-02-08T20:02:54.157Z,15.97
2023-02-08T20:05:21.955Z,18.10
2023-02-08T20:07:51.069Z,17.40
2023-02-08T20:10:18.947Z,16.17
2023-02-08T20:12:46.761Z,16.83
2023-02-08T20:15:14.559Z,18.87
2023-02-08T20:17:42.403Z,20.23
2023-02-08T20:20:11.330Z,16.10
2023-02-08T20:22:39.144Z,23.00
2023-02-08T20:25:09.063Z,17.73
2023-02-08T20:27:36.900Z,21.80
2023-02-08T20:30:05.625Z,23.70
2023-02-08T20:32:33.478Z,20.77
2023-02-08T20:35:01.380Z,23.27
2023-02-08T20:37:29.272Z,25.70
2023-02-08T20:39:57.141Z,23.97
2023-02-08T20:42:26.381Z,21.77
2023-02-08T20:44:54.346Z,21.67
2023-02-08T20:47:22.250Z,22.63
2023-02-08T20:49:50.543Z,21.17
2023-02-08T20:52:18.681Z,22.00
2023-02-08T20:54:47.718Z,20.77
2023-02-08T20:57:17.956Z,22.60
2023-02-08T20:59:47.223Z,23.20
2023-02-08T21:02:18.954Z,25.07
2023-02-08T21:04:46.831Z,24.20
2023-02-08T21:07:16.821Z,24.20
2023-02-08T21:09:45.310Z,26.83
2023-02-08T21:12:13.390Z,26.50
2023-02-08T21:14:43.038Z,19.80
2023-02-08T21:17:12.270Z,19.03
2023-02-08T21:19:40.479Z,24.30
2023-02-08T21:22:08.300Z,27.07
2023-02-08T21:24:36.194Z,21.43
2023-02-08T21:27:04.009Z,24.10
2023-02-08T21:29:32.570Z,26.47
2023-02-08T21:32:01.073Z,26.13
2023-02-08T21:34:30.554Z,25.60
2023-02-08T21:36:58.443Z,24.13
2023-02-08T21:39:26.357Z,28.00
2023-02-08T21:41:55.342Z,22.87
2023-02-08T21:44:23.363Z,20.93
2023-02-08T21:46:51.311Z,21.67
2023-02-08T21:49:37.065Z,15.77
2023-02-08T21:52:24.198Z,14.83
2023-02-08T21:54:53.568Z,13.20
2023-02-08T21:57:23.472Z,15.93
2023-02-08T21:59:53.188Z,15.47
2023-02-08T22:02:24.648Z,14.97
2023-02-08T22:05:11.484Z,13.53
2023-02-08T22:07:45.807Z,13.67
2023-02-08T22:10:15.395Z,17.67
2023-02-08T22:12:43.260Z,16.80
2023-02-08T22:15:13.143Z,16.30
2023-02-08T22:17:41.361Z,18.00
2023-02-08T22:20:10.609Z,16.20
2023-02-08T22:22:39.048Z,17.40
2023-02-08T22:25:09.578Z,17.37
2023-02-08T22:27:38.977Z,18.40
2023-02-08T22:30:07.640Z,20.47
2023-02-08T22:32:35.667Z,19.37
2023-02-08T22:35:03.602Z,18.17
2023-02-08T22:37:33.877Z,18.03
2023-02-08T22:40:01.990Z,18.77
2023-02-08T22:42:31.266Z,18.93
2023-02-08T22:44:59.232Z,18.10
2023-02-08T22:47:27.082Z,17.20
2023-02-08T22:49:57.546Z,18.73
2023-02-08T22:52:25.778Z,17.50
2023-02-08T22:54:54.561Z,17.83
2023-02-08T22:57:22.603Z,16.83
2023-02-08T22:59:51.922Z,16.83
